createdAt,value
2022-10-09T00:01:21.961Z,12.34
2022-10-09T00:03:51.928Z,12.37
2022-10-09T00:06:22.571Z,11.91
2022-10-09T00:08:50.766Z,11.89
2022-10-09T00:11:22.598Z,12.10
2022-10-09T00:13:51.958Z,11.82
2022-10-09T00:16:21.699Z,12.04
2022-10-09T00:18:50.314Z,11.86
2022-10-09T00:21:21.541Z,11.52
2022-10-09T00:23:50.774Z,11.63
2022-10-09T00:26:21.545Z,11.47
2022-10-09T00:28:50.574Z,11.69
2022-10-09T00:31:19.005Z,11.76
2022-10-09T00:33:47.484Z,11.81
2022-10-09T00:36:17.914Z,11.92
2022-10-09T00:38:46.240Z,11.86
2022-10-09T00:41:16.870Z,11.64
2022-10-09T00:43:48.993Z,11.39
2022-10-09T00:46:29.736Z,11.68
2022-10-09T00:49:03.945Z,11.75
2022-10-09T00:51:33.389Z,11.94
2022-10-09T00:54:03.084Z,11.77
2022-10-09T00:56:31.123Z,11.57
2022-10-09T00:59:01.129Z,11.55
2022-10-09T01:01:29.342Z,11.66
2022-10-09T01:03:57.595Z,11.78
2022-10-09T01:06:37.048Z,11.95
2022-10-09T01:09:10.365Z,11.76
2022-10-09T01:11:47.376Z,11.94
2022-10-09T01:14:24.060Z,11.99
2022-10-09T01:17:02.321Z,11.97
2022-10-09T01:19:51.479Z,12.02
2022-10-09T01:22:34.500Z,12.04
2022-10-09T01:25:08.050Z,11.57
2022-10-09T01:27:38.974Z,11.45
2022-10-09T01:30:10.289Z,11.68
2022-10-09T01:32:42.291Z,11.83
2022-10-09T01:35:12.997Z,11.70
2022-10-09T01:37:43.242Z,11.66
2022-10-09T01:40:14.917Z,11.76
2022-10-09T01:42:47.094Z,11.88
2022-10-09T01:45:16.276Z,11.85
2022-10-09T01:47:44.947Z,11.61
2022-10-09T01:50:22.126Z,11.70
2022-10-09T01:52:52.980Z,11.62
2022-10-09T01:55:30.070Z,11.55
2022-10-09T01:58:07.594Z,11.24
2022-10-09T02:00:38.726Z,11.37
2022-10-09T02:03:10.900Z,11.26
2022-10-09T02:05:41.181Z,11.39
2022-10-09T02:08:10.715Z,11.45
2022-10-09T02:10:41.017Z,11.49
2022-10-09T02:13:10.692Z,11.46
2022-10-09T02:15:46.676Z,11.16
2022-10-09T02:18:16.816Z,11.19
2022-10-09T02:20:49.708Z,11.13
2022-10-09T02:23:19.591Z,11.21
2022-10-09T02:25:47.904Z,11.28
2022-10-09T02:28:17.614Z,11.42
2022-10-09T02:30:57.808Z,11.27
2022-10-09T02:33:32.175Z,11.33
2022-10-09T02:36:00.473Z,11.16
2022-10-09T02:38:28.823Z,10.88
2022-10-09T02:41:00.060Z,10.91
2022-10-09T02:43:30.157Z,11.01
2022-10-09T02:45:58.413Z,10.90
2022-10-09T02:48:26.928Z,10.68
2022-10-09T02:50:55.084Z,10.69
2022-10-09T02:53:23.103Z,10.76
2022-10-09T02:55:51.225Z,10.81
2022-10-09T02:58:19.735Z,10.88
2022-10-09T03:00:52.054Z,10.85
2022-10-09T03:03:21.357Z,10.91
2022-10-09T03:05:49.958Z,11.02
2022-10-09T03:08:19.092Z,11.14
2022-10-09T03:10:47.452Z,11.16
2022-10-09T03:13:15.465Z,10.90
2022-10-09T03:15:44.004Z,10.95
2022-10-09T03:18:13.691Z,10.76
2022-10-09T03:20:41.621Z,10.69
2022-10-09T03:23:09.614Z,10.82
2022-10-09T03:25:37.821Z,10.86
2022-10-09T03:28:06.506Z,10.88
2022-10-09T03:30:34.626Z,10.74
2022-10-09T03:33:02.767Z,10.79
2022-10-09T03:35:32.429Z,10.65
2022-10-09T03:38:00.680Z,10.75
2022-10-09T03:40:29.017Z,10.95
2022-10-09T03:42:57.126Z,10.79
2022-10-09T03:45:25.416Z,10.91
2022-10-09T03:47:53.441Z,10.64
2022-10-09T03:50:21.502Z,10.73
2022-10-09T03:52:51.265Z,10.78
2022-10-09T03:55:19.494Z,10.90
2022-10-09T03:57:47.600Z,10.88
2022-10-09T04:00:16.900Z,10.87
2022-10-09T04:02:44.972Z,10.76
2022-10-09T04:05:13.023Z,10.64
2022-10-09T04:07:41.034Z,10.73
2022-10-09T04:10:11.232Z,10.85
2022-10-09T04:12:39.929Z,10.59
2022-10-09T04:15:09.366Z,10.47
2022-10-09T04:17:37.950Z,10.56
2022-10-09T04:20:06.786Z,10.47
2022-10-09T04:22:34.875Z,10.52
2022-10-09T04:25:02.832Z,10.55
2022-10-09T04:27:32.593Z,10.48
2022-10-09T04:30:00.640Z,10.51
2022-10-09T04:32:28.901Z,10.36
2022-10-09T04:34:56.993Z,10.46
2022-10-09T04:37:25.036Z,10.53
2022-10-09T04:39:53.100Z,10.51
2022-10-09T04:42:21.664Z,10.57
2022-10-09T04:44:51.106Z,10.36
2022-10-09T04:47:19.335Z,10.30
2022-10-09T04:49:47.619Z,10.50
2022-10-09T04:52:15.852Z,10.24
2022-10-09T04:54:44.012Z,10.15
2022-10-09T04:57:12.067Z,9.96
2022-10-09T04:59:40.127Z,10.04
2022-10-09T05:02:09.784Z,9.95
2022-10-09T05:04:38.284Z,10.02
2022-10-09T05:07:06.204Z,10.33
2022-10-09T05:09:34.200Z,10.41
2022-10-09T05:12:02.295Z,10.65
2022-10-09T05:14:30.285Z,10.91
2022-10-09T05:17:13.802Z,10.94
2022-10-09T05:19:43.920Z,11.09
2022-10-09T05:22:12.031Z,11.08
2022-10-09T05:24:39.937Z,11.31
2022-10-09T05:27:07.919Z,11.45
2022-10-09T05:29:35.854Z,11.31
2022-10-09T05:32:03.949Z,11.35
2022-10-09T05:34:31.929Z,11.18
2022-10-09T05:37:01.251Z,11.07
2022-10-09T05:39:29.377Z,11.13
2022-10-09T05:41:57.558Z,11.17
2022-10-09T05:44:25.650Z,11.38
2022-10-09T05:46:53.678Z,11.44
2022-10-09T05:49:21.851Z,11.50
2022-10-09T05:51:50.006Z,11.34
2022-10-09T05:54:19.803Z,11.47
2022-10-09T05:56:47.807Z,11.42
2022-10-09T05:59:19.648Z,11.70
2022-10-09T06:01:50.323Z,11.59
2022-10-09T06:04:20.421Z,11.50
2022-10-09T06:06:49.728Z,11.66
2022-10-09T06:09:22.490Z,11.60
2022-10-09T06:11:51.982Z,11.80
2022-10-09T06:14:22.205Z,11.93
2022-10-09T06:16:50.680Z,11.90
2022-10-09T06:19:20.420Z,11.80
2022-10-09T06:21:49.404Z,11.66
2022-10-09T06:24:26.934Z,11.70
2022-10-09T06:26:56.595Z,12.00
2022-10-09T06:29:24.662Z,12.17
2022-10-09T06:31:52.833Z,12.45
2022-10-09T06:34:21.261Z,12.54
2022-10-09T06:36:49.375Z,12.47
2022-10-09T06:39:17.857Z,12.67
2022-10-09T06:41:47.276Z,12.77
2022-10-09T06:44:17.344Z,12.61
2022-10-09T06:46:46.942Z,12.53
2022-10-09T06:49:15.174Z,12.39
2022-10-09T06:51:43.287Z,12.48
2022-10-09T06:54:13.321Z,12.40
2022-10-09T06:56:42.031Z,12.65
2022-10-09T06:59:13.577Z,12.78
2022-10-09T07:01:41.931Z,12.94
2022-10-09T07:04:12.937Z,12.94
2022-10-09T07:06:42.741Z,13.18
2022-10-09T07:09:13.109Z,13.14
2022-10-09T07:11:43.259Z,13.25
2022-10-09T07:14:15.915Z,13.41
2022-10-09T07:16:46.925Z,13.32
2022-10-09T07:19:17.764Z,13.42
2022-10-09T07:21:48.019Z,13.83
2022-10-09T07:24:17.289Z,13.93
2022-10-09T07:26:47.135Z,14.10
2022-10-09T07:29:17.950Z,14.34
2022-10-09T07:31:46.731Z,14.28
2022-10-09T07:34:14.787Z,14.39
2022-10-09T07:36:42.954Z,14.69
2022-10-09T07:39:11.270Z,14.83
2022-10-09T07:41:39.339Z,14.96
2022-10-09T07:44:07.298Z,14.78
2022-10-09T07:46:36.788Z,14.89
2022-10-09T07:49:05.914Z,15.15
2022-10-09T07:51:34.496Z,15.34
2022-10-09T07:54:03.022Z,15.53
2022-10-09T07:56:32.790Z,15.49
2022-10-09T07:59:03.873Z,15.67
2022-10-09T08:01:33.832Z,15.82
2022-10-09T08:04:04.370Z,15.85
2022-10-09T08:06:32.904Z,16.10
2022-10-09T08:09:02.459Z,16.06
2022-10-09T08:11:31.248Z,16.27
2022-10-09T08:13:59.875Z,16.47
2022-10-09T08:16:28.992Z,16.69
2022-10-09T08:18:58.796Z,16.73
2022-10-09T08:21:29.111Z,16.69
2022-10-09T08:23:58.950Z,16.82
2022-10-09T08:26:28.958Z,16.98
2022-10-09T08:28:59.341Z,17.15
2022-10-09T08:31:28.602Z,17.17
2022-10-09T08:33:58.312Z,17.32
2022-10-09T08:36:28.386Z,17.44
2022-10-09T08:38:56.695Z,17.42
2022-10-09T08:41:35.630Z,17.56
2022-10-09T08:44:07.297Z,17.75
2022-10-09T08:46:45.318Z,17.87
2022-10-09T08:49:26.141Z,17.95
2022-10-09T08:51:59.285Z,18.11
2022-10-09T08:54:34.591Z,18.22
2022-10-09T08:57:05.618Z,18.35
2022-10-09T08:59:33.680Z,18.46
2022-10-09T09:02:09.752Z,18.57
2022-10-09T09:05:02.799Z,18.61
2022-10-09T09:07:43.523Z,18.45
2022-10-09T09:10:18.923Z,18.49
2022-10-09T09:12:52.087Z,18.65
2022-10-09T09:15:40.204Z,18.67
2022-10-09T09:18:22.912Z,18.94
2022-10-09T09:20:54.239Z,19.14
2022-10-09T09:23:28.169Z,19.20
2022-10-09T09:25:57.084Z,19.29
2022-10-09T09:28:30.415Z,19.05
2022-10-09T09:31:03.340Z,19.02
2022-10-09T09:33:42.349Z,19.03
2022-10-09T09:36:19.082Z,19.37
2022-10-09T09:39:26.006Z,19.49
2022-10-09T09:41:38.802Z,19.70
2022-10-09T09:44:08.813Z,19.77
2022-10-09T09:46:38.782Z,19.85
2022-10-09T09:49:17.153Z,19.96
2022-10-09T09:51:45.797Z,20.13
2022-10-09T09:54:20.738Z,20.27
2022-10-09T09:59:40.128Z,20.28
2022-10-09T10:02:14.992Z,20.36
2022-10-09T10:04:52.170Z,20.54
2022-10-09T10:07:33.673Z,20.50
2022-10-09T10:10:11.561Z,20.62
2022-10-09T10:12:41.953Z,20.63
2022-10-09T10:15:22.643Z,20.79
2022-10-09T10:18:00.117Z,20.94
2022-10-09T10:20:29.701Z,21.01
2022-10-09T10:22:59.427Z,21.12
2022-10-09T10:25:33.211Z,21.18
2022-10-09T10:28:07.152Z,21.27
2022-10-09T10:30:36.611Z,21.29
2022-10-09T10:33:14.917Z,21.43
2022-10-09T10:35:45.396Z,21.28
2022-10-09T10:38:18.996Z,21.05
2022-10-09T10:40:54.008Z,21.08
2022-10-09T10:43:36.805Z,21.29
2022-10-09T10:46:13.412Z,21.46
2022-10-09T10:48:43.011Z,21.60
2022-10-09T10:51:45.118Z,21.82
2022-10-09T10:54:32.172Z,21.88
2022-10-09T10:57:09.721Z,21.29
2022-10-09T10:59:43.159Z,21.56
2022-10-09T11:02:50.292Z,21.78
2022-10-09T11:05:27.168Z,21.98
2022-10-09T11:08:09.157Z,22.03
2022-10-09T11:10:46.082Z,21.91
2022-10-09T11:13:24.127Z,21.67
2022-10-09T11:16:01.642Z,21.71
2022-10-09T11:18:47.762Z,21.88
2022-10-09T11:21:28.798Z,21.96
2022-10-09T11:24:13.035Z,21.76
2022-10-09T11:26:49.233Z,21.75
2022-10-09T11:29:24.385Z,21.88
2022-10-09T11:31:57.331Z,22.12
2022-10-09T11:34:31.598Z,22.21
2022-10-09T11:37:01.627Z,22.29
2022-10-09T11:39:33.527Z,21.95
2022-10-09T11:42:02.181Z,21.85
2022-10-09T11:44:43.920Z,22.17
2022-10-09T11:47:23.411Z,22.04
2022-10-09T11:50:15.949Z,21.65
2022-10-09T11:52:51.433Z,21.75
2022-10-09T11:55:23.101Z,22.15
2022-10-09T11:57:51.507Z,22.39
2022-10-09T12:00:32.508Z,22.33
2022-10-09T12:03:03.243Z,22.49
2022-10-09T12:05:39.934Z,22.64
2022-10-09T12:08:14.099Z,22.53
2022-10-09T12:10:52.053Z,22.90
2022-10-09T12:13:42.101Z,22.71
2022-10-09T12:16:36.876Z,22.88
2022-10-09T12:19:12.566Z,22.93
2022-10-09T12:21:48.521Z,23.01
2022-10-09T12:24:21.040Z,22.74
2022-10-09T12:26:51.439Z,22.78
2022-10-09T12:29:28.851Z,22.87
2022-10-09T12:32:04.160Z,22.96
2022-10-09T12:34:35.805Z,22.87
2022-10-09T12:37:18.931Z,22.91
2022-10-09T12:39:47.972Z,22.69
2022-10-09T12:42:23.012Z,22.84
2022-10-09T12:44:53.677Z,23.04
2022-10-09T12:47:27.066Z,23.29
2022-10-09T12:50:02.888Z,23.30
2022-10-09T12:52:32.686Z,23.48
2022-10-09T12:55:03.112Z,23.63
2022-10-09T12:57:31.433Z,23.76
2022-10-09T12:59:59.850Z,23.86
2022-10-09T13:02:29.345Z,23.60
2022-10-09T13:05:00.662Z,23.55
2022-10-09T13:07:32.517Z,23.55
2022-10-09T13:10:07.616Z,23.38
2022-10-09T13:12:36.420Z,23.49
2022-10-09T13:15:06.686Z,23.60
2022-10-09T13:17:38.917Z,23.57
2022-10-09T13:20:26.618Z,23.74
2022-10-09T13:22:55.994Z,23.79
2022-10-09T13:25:24.512Z,23.75
2022-10-09T13:27:53.036Z,23.54
2022-10-09T13:30:21.277Z,23.72
2022-10-09T13:32:50.949Z,23.59
2022-10-09T13:35:18.932Z,23.63
2022-10-09T13:37:47.207Z,23.24
2022-10-09T13:40:19.878Z,23.40
2022-10-09T13:42:53.914Z,23.36
2022-10-09T13:45:21.920Z,23.47
2022-10-09T13:47:51.886Z,23.53
2022-10-09T13:50:20.831Z,22.91
2022-10-09T13:52:48.904Z,23.18
2022-10-09T13:55:17.307Z,23.24
2022-10-09T13:57:45.465Z,23.43
2022-10-09T14:00:14.682Z,23.52
2022-10-09T14:02:42.609Z,23.52
2022-10-09T14:05:12.369Z,23.65
2022-10-09T14:07:40.263Z,23.59
2022-10-09T14:10:08.964Z,23.50
2022-10-09T14:12:37.214Z,23.49
2022-10-09T14:15:06.014Z,23.49
2022-10-09T14:17:33.975Z,23.35
2022-10-09T14:20:01.960Z,23.28
2022-10-09T14:22:31.362Z,23.32
2022-10-09T14:24:59.238Z,23.20
2022-10-09T14:27:27.259Z,23.15
2022-10-09T14:29:57.241Z,23.08
2022-10-09T14:32:25.680Z,23.05
2022-10-09T14:34:54.017Z,22.98
2022-10-09T14:37:40.672Z,23.10
2022-10-09T14:40:12.702Z,23.03
2022-10-09T14:42:41.315Z,22.90
2022-10-09T14:45:10.839Z,22.99
2022-10-09T14:47:38.947Z,22.93
2022-10-09T14:50:07.849Z,22.89
2022-10-09T14:52:35.964Z,22.75
2022-10-09T14:55:03.938Z,22.80
2022-10-09T14:57:35.529Z,22.73
2022-10-09T15:00:05.631Z,22.66
2022-10-09T15:02:33.710Z,22.64
2022-10-09T15:05:01.784Z,22.55
2022-10-09T15:07:29.949Z,22.49
2022-10-09T15:09:58.072Z,22.42
2022-10-09T15:12:26.432Z,22.45
2022-10-09T15:14:55.838Z,22.35
2022-10-09T15:17:23.878Z,22.29
2022-10-09T15:19:54.086Z,22.26
2022-10-09T15:22:22.049Z,22.21
2022-10-09T15:24:50.654Z,22.11
2022-10-09T15:27:19.494Z,22.05
2022-10-09T15:29:47.728Z,21.99
2022-10-09T15:32:18.130Z,21.93
2022-10-09T15:34:46.194Z,21.83
2022-10-09T15:37:14.350Z,21.79
2022-10-09T15:39:42.648Z,21.75
2022-10-09T15:42:10.775Z,21.52
2022-10-09T15:44:38.744Z,21.57
2022-10-09T15:47:06.844Z,21.44
2022-10-09T15:49:36.780Z,21.37
2022-10-09T15:52:05.246Z,21.34
2022-10-09T15:54:33.285Z,21.31
2022-10-09T15:57:02.147Z,21.18
2022-10-09T15:59:31.705Z,21.18
2022-10-09T16:01:59.703Z,21.16
2022-10-09T16:04:29.048Z,21.16
2022-10-09T16:06:59.246Z,21.13
2022-10-09T16:09:27.600Z,21.08
2022-10-09T16:11:55.829Z,21.04
2022-10-09T16:14:23.967Z,20.98
2022-10-09T16:16:52.066Z,20.93
2022-10-09T16:19:20.223Z,20.81
2022-10-09T16:21:49.839Z,20.81
2022-10-09T16:24:20.259Z,20.85
2022-10-09T16:26:51.044Z,20.79
2022-10-09T16:29:19.596Z,20.74
2022-10-09T16:31:47.622Z,20.69
2022-10-09T16:34:15.680Z,20.62
2022-10-09T16:36:44.265Z,20.57
2022-10-09T16:39:12.536Z,20.52
2022-10-09T16:41:42.282Z,20.43
2022-10-09T16:44:13.842Z,20.18
2022-10-09T16:46:42.043Z,20.15
2022-10-09T16:49:19.887Z,20.16
2022-10-09T16:51:50.842Z,20.08
2022-10-09T16:54:18.883Z,20.10
2022-10-09T16:56:48.310Z,20.09
2022-10-09T16:59:16.325Z,20.05
2022-10-09T17:01:47.003Z,20.00
2022-10-09T17:04:15.091Z,19.99
2022-10-09T17:06:44.135Z,19.96
2022-10-09T17:09:14.472Z,19.91
2022-10-09T17:11:43.339Z,19.85
2022-10-09T17:14:13.030Z,19.81
2022-10-09T17:16:42.941Z,19.77
2022-10-09T17:19:11.256Z,19.75
2022-10-09T17:21:39.408Z,19.57
2022-10-09T17:24:08.647Z,19.64
2022-10-09T17:26:36.960Z,19.59
2022-10-09T17:29:05.402Z,19.53
2022-10-09T17:31:35.406Z,19.51
2022-10-09T17:34:05.684Z,19.47
2022-10-09T17:36:36.857Z,19.44
2022-10-09T17:39:06.149Z,19.39
2022-10-09T17:41:35.738Z,19.29
2022-10-09T17:44:04.137Z,19.18
2022-10-09T17:46:32.767Z,19.13
2022-10-09T17:49:02.362Z,19.03
2022-10-09T17:51:32.567Z,18.94
2022-10-09T17:54:03.254Z,18.87
2022-10-09T17:56:33.182Z,18.81
2022-10-09T17:59:02.813Z,18.74
2022-10-09T18:01:31.320Z,18.67
2022-10-09T18:04:01.258Z,18.60
2022-10-09T18:06:32.460Z,18.55
2022-10-09T18:09:00.610Z,18.43
2022-10-09T18:11:30.007Z,18.45
2022-10-09T18:13:58.157Z,18.19
2022-10-09T18:16:35.441Z,18.32
2022-10-09T18:19:07.911Z,18.24
2022-10-09T18:21:36.790Z,18.16
2022-10-09T18:24:05.290Z,18.13
2022-10-09T18:26:33.625Z,17.49
2022-10-09T18:29:02.423Z,16.73
2022-10-09T18:31:31.202Z,17.01
2022-10-09T18:34:00.746Z,16.87
2022-10-09T18:36:36.530Z,16.04
2022-10-09T18:39:08.105Z,16.04
2022-10-09T18:41:37.560Z,16.38
2022-10-09T18:44:07.338Z,16.44
2022-10-09T18:46:39.139Z,16.62
2022-10-09T18:49:09.696Z,16.82
2022-10-09T18:51:42.360Z,16.80
2022-10-09T18:54:17.143Z,16.92
2022-10-09T18:56:46.363Z,17.05
2022-10-09T18:59:16.782Z,17.00
2022-10-09T19:01:45.025Z,17.04
2022-10-09T19:04:13.546Z,17.02
2022-10-09T19:06:42.956Z,17.02
2022-10-09T19:09:11.130Z,16.73
2022-10-09T19:11:39.883Z,16.77
2022-10-09T19:14:08.041Z,16.90
2022-10-09T19:16:36.340Z,16.94
2022-10-09T19:19:04.916Z,16.91
2022-10-09T19:21:33.150Z,16.61
2022-10-09T19:24:06.914Z,16.51
2022-10-09T19:26:35.451Z,16.54
2022-10-09T19:29:06.725Z,16.55
2022-10-09T19:31:35.596Z,16.37
2022-10-09T19:34:05.187Z,16.46
2022-10-09T19:36:35.118Z,16.31
2022-10-09T19:39:06.492Z,15.79
2022-10-09T19:41:34.532Z,16.25
2022-10-09T19:44:02.645Z,16.30
2022-10-09T19:46:31.002Z,16.23
2022-10-09T19:48:58.962Z,16.27
2022-10-09T19:51:27.920Z,16.09
2022-10-09T19:53:56.199Z,16.16
2022-10-09T19:56:28.191Z,16.04
2022-10-09T19:58:58.013Z,16.18
2022-10-09T20:01:28.030Z,16.16
2022-10-09T20:03:57.246Z,15.94
2022-10-09T20:06:25.534Z,16.24
2022-10-09T20:08:54.258Z,16.25
2022-10-09T20:11:23.348Z,16.07
2022-10-09T20:13:55.997Z,15.94
2022-10-09T20:16:25.737Z,15.89
2022-10-09T20:18:56.048Z,15.70
2022-10-09T20:21:24.248Z,15.57
2022-10-09T20:23:52.868Z,15.83
2022-10-09T20:26:23.310Z,15.61
2022-10-09T20:28:53.967Z,15.70
2022-10-09T20:31:24.797Z,15.49
2022-10-09T20:33:53.694Z,15.19
2022-10-09T20:36:24.025Z,15.07
2022-10-09T20:38:52.257Z,14.86
2022-10-09T20:41:20.235Z,14.71
2022-10-09T20:43:53.118Z,14.43
2022-10-09T20:46:22.565Z,14.52
2022-10-09T20:48:51.407Z,14.43
2022-10-09T20:51:21.171Z,14.29
2022-10-09T20:53:55.858Z,13.97
2022-10-09T20:56:25.578Z,13.95
2022-10-09T20:58:55.291Z,13.92
2022-10-09T21:01:24.150Z,14.14
2022-10-09T21:03:52.319Z,14.29
2022-10-09T21:06:23.163Z,13.94
2022-10-09T21:08:51.507Z,14.23
2022-10-09T21:11:20.747Z,13.80
2022-10-09T21:13:49.531Z,14.05
2022-10-09T21:16:21.923Z,14.09
2022-10-09T21:18:53.800Z,14.03
2022-10-09T21:21:21.915Z,14.22
2022-10-09T21:23:51.953Z,14.18
2022-10-09T21:26:23.432Z,13.85
2022-10-09T21:28:58.243Z,14.11
2022-10-09T21:31:31.243Z,14.02
2022-10-09T21:34:00.311Z,14.03
2022-10-09T21:36:35.538Z,13.67
2022-10-09T21:39:03.761Z,13.80
2022-10-09T21:41:32.952Z,13.57
2022-10-09T21:44:00.920Z,13.70
2022-10-09T21:46:30.536Z,13.88
2022-10-09T21:48:58.905Z,13.73
2022-10-09T21:51:27.904Z,13.67
2022-10-09T21:53:56.606Z,13.81
2022-10-09T21:56:24.855Z,13.84
2022-10-09T21:58:52.892Z,13.84
2022-10-09T22:01:20.889Z,13.91
2022-10-09T22:03:50.247Z,13.82
2022-10-09T22:06:19.496Z,13.95
2022-10-09T22:08:47.995Z,14.03
2022-10-09T22:11:17.128Z,14.02
2022-10-09T22:13:45.319Z,14.01
2022-10-09T22:16:15.524Z,13.76
2022-10-09T22:18:44.126Z,14.00
2022-10-09T22:21:16.306Z,14.03
2022-10-09T22:23:44.892Z,13.95
2022-10-09T22:26:14.634Z,13.78
2022-10-09T22:28:42.837Z,13.62
2022-10-09T22:31:14.349Z,13.81
2022-10-09T22:33:42.925Z,13.76
2022-10-09T22:36:14.537Z,13.80
2022-10-09T22:38:43.053Z,13.77
2022-10-09T22:41:13.791Z,13.46
2022-10-09T22:43:42.521Z,13.40
2022-10-09T22:46:13.448Z,13.43
2022-10-09T22:48:42.229Z,13.31
2022-10-09T22:51:12.313Z,13.28
2022-10-09T22:53:41.940Z,13.37
2022-10-09T22:56:12.783Z,13.34
2022-10-09T22:58:40.860Z,13.32
2022-10-09T23:01:11.178Z,13.22
2022-10-09T23:03:39.226Z,13.08
2022-10-09T23:06:09.346Z,12.81
2022-10-09T23:08:38.866Z,13.00
2022-10-09T23:11:08.830Z,13.11
2022-10-09T23:13:37.664Z,12.93
2022-10-09T23:16:07.838Z,13.10
2022-10-09T23:18:37.395Z,13.21
2022-10-09T23:21:07.031Z,13.20
2022-10-09T23:23:35.280Z,12.99
2022-10-09T23:26:05.884Z,12.60
2022-10-09T23:28:35.828Z,12.90
2022-10-09T23:31:04.728Z,12.87
2022-10-09T23:33:33.326Z,13.02
2022-10-09T23:36:03.114Z,12.97
2022-10-09T23:38:31.133Z,12.90
2022-10-09T23:41:00.827Z,12.94
2022-10-09T23:43:29.710Z,13.00
2022-10-09T23:46:00.805Z,13.15
2022-10-09T23:48:29.761Z,13.23
2022-10-09T23:50:58.130Z,13.10
2022-10-09T23:53:27.610Z,12.96
2022-10-09T23:55:55.907Z,12.96
2022-10-09T23:58:23.985Z,12.92
